Dawn, Texas
Current Conditions -  °F | °C
As of 11:55 AM on Friday 19 Dec 2014 (Local Time) from KHRX Reporting Station
Haze Haze  
Wind Chill: 40°   Ceiling: 900
Heat Index: 40°   Visibility: 3mi
Dew Point: 39°   Wind: 3mph
Humidity: 95%   Direction: 250°WSW
Pressure: 30.17"   Gusts: NA
Location:  34.91°N, 102.2°W
Report Text: KHRX 191755Z AUTO 25003KT 3SM BR OVC009 04/04 A3017 RMK AO2 T00440037 10044 20022
Loading
Personal Weather Stations






























Interactive Weather Map New forecast layout! Learn more

10-Day Weather Forecast

Advertisements
Track Severe Weather on mobile